In Rescue
 
Open Full Screen Window  High Contrast Mode
Wind Gusting 27 knots
22
March 29, 2020 9:32 PM EDT
Present Weather: Rain
Weather Information
Wind Direction
  240 °
Wind Speed
  22 kt (25 mph)
Wind Gust
  27 kt (31 mph)
Altimeter
29.74 in
Visibility
10 SM
Temperature
05° C
41° F
Dewpoint
04° C
39° F
Humidity
93%
1hr Rain Fall
00.00 in.
24hr Rain Fall
00.02 in.
Sky Condition
Overcast @ 1,600 ft
MVFR

METAR KY70 300132Z AUTO 24022G27KT 10SM RA OVC016 05/04 A2974 RMK AO2 T00480035

FAA Disclaimer: The data displayed is for advisory purposes only and is not to be used for flight planning or operations.